Time;durP1;ratioP1;P1;durP2;ratioP2;P2;SDS_P1;SDS_P2;PMS_P1;PMS_P2;Temp;Humidity;BMP_temperature;BMP_pressure;BME280_temperature;BME280_humidity;BME280_pressure;Samples;Min_cycle;Max_cycle;Signal;HPM_P1;HPM_P2
2023/08/01 08:05:14;;;;;;;15.10;5.10;;;;;;;26.19;48.50;99135.00;4933222;29;20071;-86
2023/08/01 08:07:40;;;;;;;16.80;5.30;;;;;;;26.22;50.21;99125.75;4931778;29;20134;-85
2023/08/01 08:10:09;;;;;;;8.82;4.95;;;;;;;26.22;48.42;99129.38;4933335;29;20047;-87
2023/08/01 08:12:35;;;;;;;8.70;5.35;;;;;;;26.39;47.89;99123.91;4931890;29;20564;-85
2023/08/01 08:15:01;;;;;;;15.95;5.50;;;;;;;26.60;47.54;99117.97;4931425;29;20136;-84
2023/08/01 08:17:28;;;;;;;9.05;4.75;;;;;;;26.69;46.96;99128.66;4931693;29;20090;-84
2023/08/01 08:19:54;;;;;;;9.02;5.20;;;;;;;26.58;46.59;99117.59;4930498;29;20058;-85
2023/08/01 08:22:19;;;;;;;12.25;5.32;;;;;;;26.70;46.49;99121.81;4932084;29;20036;-83
2023/08/01 08:24:45;;;;;;;11.57;6.03;;;;;;;26.81;47.23;99121.63;4934006;29;20071;-84
2023/08/01 08:27:12;;;;;;;29.05;5.63;;;;;;;26.58;46.26;99136.44;4916666;29;20421;-84
2023/08/01 08:29:39;;;;;;;14.77;5.20;;;;;;;26.53;47.27;99129.31;4930360;29;20724;-84
2023/08/01 08:32:06;;;;;;;25.50;4.95;;;;;;;26.64;46.58;99117.91;4899568;29;20047;-83
2023/08/01 08:34:32;;;;;;;7.20;4.32;;;;;;;26.77;46.29;99132.13;4933603;29;20040;-84
2023/08/01 08:36:58;;;;;;;12.00;4.38;;;;;;;26.65;45.98;99122.28;4914906;29;20715;-85
2023/08/01 08:39:25;;;;;;;18.35;5.15;;;;;;;26.61;46.61;99127.19;4935259;29;20052;-87
2023/08/01 08:41:52;;;;;;;12.77;5.55;;;;;;;26.46;46.17;99118.19;4935740;29;20043;-89
2023/08/01 08:44:24;;;;;;;19.73;5.10;;;;;;;26.45;46.46;99117.38;4938122;29;20723;-89
2023/08/01 08:46:52;;;;;;;12.02;4.90;;;;;;;26.43;46.73;99127.44;4925264;29;20058;-90
2023/08/01 08:49:21;;;;;;;14.82;7.97;;;;;;;26.31;47.44;99114.03;4909451;29;20075;-90
2023/08/01 08:51:48;;;;;;;13.18;5.35;;;;;;;26.34;47.11;99116.78;4908593;29;20059;-88
2023/08/01 08:54:17;;;;;;;16.48;4.38;;;;;;;26.20;46.40;99103.78;4893333;29;20581;-90
2023/08/01 08:56:43;;;;;;;23.00;6.63;;;;;;;26.47;47.04;99114.16;4943629;29;20043;-92
2023/08/01 08:59:10;;;;;;;9.20;5.18;;;;;;;26.61;47.38;99111.16;4896122;29;20075;-92
2023/08/01 09:01:39;;;;;;;13.18;5.68;;;;;;;26.92;46.57;99111.00;4908613;29;20083;-93
2023/08/01 09:04:06;;;;;;;10.82;4.78;;;;;;;27.15;45.33;99118.59;4942135;29;20048;-89
2023/08/01 09:06:58;;;;;;;11.38;4.55;;;;;;;27.03;45.55;99116.44;4928907;29;20075;-88
2023/08/01 09:09:26;;;;;;;11.23;5.43;;;;;;;27.15;46.08;99107.38;4931267;29;20047;-89
2023/08/01 09:11:52;;;;;;;6.90;4.57;;;;;;;27.29;45.37;99109.16;4934676;29;20035;-89
2023/08/01 09:14:20;;;;;;;12.00;5.80;;;;;;;27.43;44.90;99103.22;4961373;29;20043;-89
2023/08/01 09:16:47;;;;;;;14.80;6.38;;;;;;;27.40;44.65;99079.63;4927250;29;20058;-87
2023/08/01 09:19:25;;;;;;;12.45;5.80;;;;;;;27.64;43.82;99097.16;4940872;29;20055;-88
2023/08/01 09:21:52;;;;;;;31.77;5.93;;;;;;;27.67;44.94;99098.31;4946218;29;20043;-90
2023/08/01 09:24:19;;;;;;;;;;;;;;;27.86;44.78;99108.75;4973917;28;20047;-89
2023/08/01 09:26:46;;;;;;;10.50;5.53;;;;;;;27.79;43.76;99094.06;4958929;29;19973;-88
2023/08/01 09:29:13;;;;;;;8.35;4.25;;;;;;;27.73;41.83;99095.78;4948791;29;20038;-89
2023/08/01 09:31:42;;;;;;;7.80;4.65;;;;;;;27.78;43.97;99118.56;4966711;29;20048;-88
2023/08/01 09:34:24;;;;;;;8.40;5.25;;;;;;;27.69;43.48;99106.31;4972058;29;20496;-88
2023/08/01 09:37:06;;;;;;;14.20;9.43;;;;;;;27.84;43.02;99107.59;4963783;29;20043;-89
2023/08/01 09:39:33;;;;;;;7.57;5.30;;;;;;;27.89;42.37;99109.13;4967228;29;20465;-88
2023/08/01 09:42:01;;;;;;;4.82;4.32;;;;;;;27.76;42.03;99095.72;4949657;29;20039;-89
2023/08/01 09:44:28;;;;;;;10.10;4.47;;;;;;;27.68;42.87;99110.31;4932400;29;20524;-91
2023/08/01 09:47:02;;;;;;;12.23;5.55;;;;;;;27.72;44.56;99082.97;4931901;29;20066;-91
2023/08/01 09:49:29;;;;;;;15.30;6.70;;;;;;;27.81;44.38;99074.75;4968808;29;20138;-91
2023/08/01 09:51:57;;;;;;;16.00;6.10;;;;;;;27.81;44.52;99069.91;4966063;29;20043;-94
2023/08/01 09:54:24;;;;;;;10.82;4.55;;;;;;;27.81;43.93;99086.00;4949300;29;20105;-88
2023/08/01 09:56:53;;;;;;;13.60;6.30;;;;;;;27.83;46.39;99084.34;4980767;28;20038;-89
2023/08/01 09:59:41;;;;;;;30.40;7.43;;;;;;;27.95;44.12;99088.50;4948500;29;20116;-92
2023/08/01 10:02:23;;;;;;;10.18;6.32;;;;;;;28.09;44.51;99095.78;4953059;29;20512;-91
2023/08/01 10:04:52;;;;;;;13.23;7.55;;;;;;;28.17;43.69;99091.56;4966249;29;20048;-94
2023/08/01 10:07:24;;;;;;;10.20;6.00;;;;;;;28.24;44.06;99082.19;4947317;29;20075;-94
2023/08/01 10:09:51;;;;;;;11.77;5.35;;;;;;;28.24;44.20;99062.50;4965693;29;20040;-91
2023/08/01 10:12:22;;;;;;;15.60;6.80;;;;;;;28.45;44.07;99089.34;4953304;29;20032;-92
2023/08/01 10:14:49;;;;;;;9.13;7.53;;;;;;;28.42;42.91;99081.78;4953671;29;20079;-90
2023/08/01 10:17:16;;;;;;;10.00;6.68;;;;;;;28.32;43.74;99069.53;4953582;29;20055;-91
2023/08/01 10:19:44;;;;;;;12.82;6.78;;;;;;;28.06;45.02;99058.13;4938470;29;20055;-92
2023/08/01 10:22:13;;;;;;;29.90;7.65;;;;;;;27.91;44.88;99051.25;4937183;29;20043;-93
2023/08/01 10:24:44;;;;;;;13.98;5.18;;;;;;;27.98;44.28;99095.22;4919999;29;20054;-90
2023/08/01 10:27:18;;;;;;;20.05;6.95;;;;;;;27.77;44.60;99086.06;4932385;29;20402;-89
2023/08/01 10:29:46;;;;;;;18.52;6.32;;;;;;;27.75;46.37;99094.13;4964801;29;20043;-89
2023/08/01 10:32:19;;;;;;;13.32;7.97;;;;;;;27.56;46.54;99075.28;4963476;29;20047;-89
2023/08/01 10:34:52;;;;;;;17.65;13.10;;;;;;;27.47;47.96;99080.69;4966254;29;20047;-92
2023/08/01 10:37:18;;;;;;;12.80;7.70;;;;;;;27.31;47.39;99073.00;4948726;29;20054;-89
2023/08/01 10:39:44;;;;;;;15.38;11.27;;;;;;;27.26;47.70;99077.13;4965988;29;20130;-87
2023/08/01 10:42:12;;;;;;;17.48;6.78;;;;;;;27.22;48.47;99070.78;4962976;29;20192;-91
2023/08/01 10:44:45;;;;;;;24.63;6.25;;;;;;;27.22;47.38;99078.38;4969941;29;20039;-91
2023/08/01 10:47:12;;;;;;;16.15;5.18;;;;;;;27.23;47.26;99085.59;4968601;29;20062;-87
2023/08/01 10:49:42;;;;;;;30.90;6.13;;;;;;;27.06;46.22;99065.84;4950011;29;20043;-89
2023/08/01 10:52:28;;;;;;;44.20;6.90;;;;;;;27.03;47.56;99057.50;4967756;28;20058;-88
2023/08/01 10:55:00;;;;;;;9.95;4.20;;;;;;;27.09;47.55;99070.59;4963793;29;20093;-90
2023/08/01 10:57:31;;;;;;;16.05;5.07;;;;;;;26.95;47.83;99059.66;4959800;29;20509;-87
2023/08/01 10:59:58;;;;;;;15.10;4.75;;;;;;;26.95;48.62;99059.66;4938972;29;20103;-87
2023/08/01 11:02:28;;;;;;;12.35;5.07;;;;;;;26.85;48.58;99055.03;4940472;29;20046;-88
2023/08/01 11:04:58;;;;;;;10.63;4.72;;;;;;;27.05;48.55;99083.91;4927081;29;20059;-88
2023/08/01 11:07:25;;;;;;;13.38;4.78;;;;;;;27.06;48.60;99068.66;4957192;28;20087;-87
2023/08/01 11:10:01;;;;;;;;;;;;;;;27.28;47.46;99076.66;4955769;28;20071;-87
2023/08/01 11:12:31;;;;;;;12.95;5.03;;;;;;;27.16;46.84;99058.47;4934142;29;19922;-88
2023/08/01 11:15:01;;;;;;;8.13;4.50;;;;;;;27.21;46.94;99060.75;4907854;29;20031;-88
2023/08/01 11:17:27;;;;;;;17.20;4.60;;;;;;;27.27;48.38;99073.06;4933939;29;20043;-89
2023/08/01 11:20:04;;;;;;;7.97;4.47;;;;;;;27.08;48.98;99057.00;4955437;29;20063;-88
2023/08/01 11:22:31;;;;;;;31.35;6.03;;;;;;;27.13;49.00;99068.53;4936979;29;20093;-86
2023/08/01 11:24:58;;;;;;;25.70;5.28;;;;;;;27.04;49.29;99056.28;4953765;29;20043;-88
2023/08/01 11:27:25;;;;;;;26.17;5.55;;;;;;;27.08;48.10;99069.00;4953073;29;20070;-87
2023/08/01 11:29:53;;;;;;;22.45;6.38;;;;;;;26.85;46.95;99060.66;4936426;29;20150;-85
2023/08/01 11:32:22;;;;;;;19.75;5.40;;;;;;;26.74;47.30;99066.47;4919297;29;20043;-86
2023/08/01 11:34:49;;;;;;;25.98;6.47;;;;;;;26.75;48.11;99056.81;4953551;29;20063;-89
2023/08/01 11:37:18;;;;;;;21.10;6.55;;;;;;;26.70;48.16;99049.69;4952905;29;20038;-87
2023/08/01 11:39:45;;;;;;;28.80;5.82;;;;;;;26.86;48.23;99063.03;4953090;29;20047;-88
2023/08/01 11:42:17;;;;;;;53.03;8.05;;;;;;;26.73;47.31;99042.44;4937572;29;20129;-87
2023/08/01 11:44:44;;;;;;;29.30;6.20;;;;;;;26.69;47.22;99050.16;4940197;29;20047;-88
2023/08/01 11:47:14;;;;;;;32.58;5.80;;;;;;;26.65;46.94;99049.41;4953877;29;20564;-88
2023/08/01 11:49:50;;;;;;;15.10;5.00;;;;;;;26.88;47.39;99048.56;4955311;29;20055;-87
2023/08/01 11:52:26;;;;;;;24.02;5.50;;;;;;;27.23;48.61;99063.16;4956550;29;20129;-90
2023/08/01 11:54:55;;;;;;;31.13;5.85;;;;;;;27.54;46.34;99056.06;4955726;29;20039;-89
2023/08/01 11:57:22;;;;;;;30.65;5.93;;;;;;;27.63;45.79;99039.41;4957954;29;20044;-88
2023/08/01 11:59:53;;;;;;;16.75;5.47;;;;;;;27.92;43.71;99054.88;4960214;29;20078;-85
2023/08/01 12:02:26;;;;;;;14.10;4.90;;;;;;;27.98;45.37;99034.25;4962051;29;20034;-85
2023/08/01 12:04:54;;;;;;;9.10;5.20;;;;;;;28.09;45.89;99039.59;4958755;29;20043;-87
2023/08/01 12:07:21;;;;;;;8.80;4.80;;;;;;;28.18;43.87;99031.34;4954426;29;20047;-86
2023/08/01 12:10:01;;;;;;;13.93;5.60;;;;;;;28.29;46.71;99048.72;4952455;29;20209;-86
2023/08/01 12:12:28;;;;;;;14.68;5.00;;;;;;;28.34;47.64;99036.97;4939782;29;20043;-88
2023/08/01 12:14:55;;;;;;;17.25;5.00;;;;;;;28.46;45.94;99045.94;4937499;29;20063;-89
2023/08/01 12:17:23;;;;;;;9.75;5.00;;;;;;;28.55;45.24;99044.06;4935026;29;20059;-86
2023/08/01 12:19:50;;;;;;;16.75;5.03;;;;;;;28.55;44.35;99017.97;4933762;29;20047;-86
2023/08/01 12:22:18;;;;;;;14.82;4.95;;;;;;;28.62;44.09;99031.06;4934446;29;20063;-87
2023/08/01 12:24:45;;;;;;;26.65;5.50;;;;;;;28.58;44.39;99025.53;4937124;29;20048;-87
2023/08/01 12:27:11;;;;;;;12.70;5.20;;;;;;;28.73;45.87;99037.16;4936951;29;20055;-89
2023/08/01 12:29:38;;;;;;;8.15;4.25;;;;;;;28.80;42.11;99020.09;4939157;29;20194;-89
2023/08/01 12:32:08;;;;;;;15.70;4.85;;;;;;;28.94;44.36;99016.91;4921657;29;20106;-87
2023/08/01 12:34:34;;;;;;;9.95;4.55;;;;;;;29.13;42.64;99025.63;4934993;29;20039;-87
2023/08/01 12:37:00;;;;;;;7.85;4.30;;;;;;;28.85;44.43;99015.97;4905645;29;20659;-88
2023/08/01 12:39:27;;;;;;;12.95;4.65;;;;;;;28.80;44.07;99014.47;4922488;29;20087;-90
2023/08/01 12:41:53;;;;;;;13.95;5.25;;;;;;;29.03;43.27;99039.56;4940587;29;20048;-88
2023/08/01 12:44:20;;;;;;;20.95;4.90;;;;;;;29.13;42.78;99014.38;4940586;29;20043;-88
2023/08/01 12:46:48;;;;;;;12.30;4.88;;;;;;;29.15;43.36;99014.72;4937821;29;20047;-88
2023/08/01 12:49:15;;;;;;;8.55;4.85;;;;;;;29.23;42.86;99007.63;4942046;29;20048;-87
2023/08/01 12:51:41;;;;;;;24.63;7.18;;;;;;;29.16;41.30;99027.56;4945196;29;20105;-92
2023/08/01 12:54:07;;;;;;;15.40;6.15;;;;;;;29.15;42.25;99020.38;4943696;29;20469;-89
2023/08/01 12:56:34;;;;;;;12.80;5.60;;;;;;;29.30;43.28;99010.25;4961564;29;20039;-88
2023/08/01 12:59:00;;;;;;;17.98;6.50;;;;;;;29.48;41.74;99018.16;4956412;28;20043;-89
2023/08/01 13:01:26;;;;;;;19.08;6.63;;;;;;;29.56;44.89;99008.25;4956954;28;20042;-87
2023/08/01 13:03:52;;;;;;;;;;;;;;;29.67;43.04;99031.28;4974841;28;20104;-89
2023/08/01 13:06:20;;;;;;;12.40;5.40;;;;;;;29.37;42.07;99014.88;4953107;28;19929;-87
2023/08/01 13:08:46;;;;;;;10.95;5.03;;;;;;;29.16;44.29;99019.13;4959646;28;20036;-92
2023/08/01 13:11:15;;;;;;;9.02;5.18;;;;;;;29.14;43.73;99027.19;4943888;29;20110;-89
2023/08/01 13:13:45;;;;;;;17.92;5.05;;;;;;;29.15;42.89;99021.16;4941585;29;20069;-89
2023/08/01 13:16:11;;;;;;;12.20;5.32;;;;;;;29.11;42.96;99017.66;4938822;29;20496;-89
2023/08/01 13:18:43;;;;;;;59.90;6.75;;;;;;;29.00;42.44;99019.97;4938549;29;20094;-89
2023/08/01 13:21:09;;;;;;;25.80;5.82;;;;;;;28.83;43.48;99029.69;4958539;29;20058;-91
2023/08/01 13:23:39;;;;;;;24.90;5.57;;;;;;;29.09;45.25;99016.50;4938229;29;20034;-90
2023/08/01 13:26:05;;;;;;;15.82;5.60;;;;;;;29.20;42.41;99011.34;4925769;29;20146;-86
2023/08/01 13:28:31;;;;;;;15.07;5.03;;;;;;;29.27;42.58;99009.13;4963963;29;20562;-88
2023/08/01 13:30:58;;;;;;;17.75;5.50;;;;;;;29.01;41.02;99019.53;4957285;29;20047;-88
2023/08/01 13:33:26;;;;;;;32.50;6.05;;;;;;;28.95;41.93;99012.06;4943981;29;20575;-89
2023/08/01 13:35:53;;;;;;;13.75;5.65;;;;;;;28.94;41.53;99014.09;4959751;28;20043;-90
2023/08/01 13:38:22;;;;;;;17.65;5.82;;;;;;;28.94;40.94;98997.19;4955716;29;20098;-88
2023/08/01 13:40:48;;;;;;;15.35;4.90;;;;;;;29.04;42.94;98992.53;4941252;29;20039;-91
2023/08/01 13:43:14;;;;;;;10.88;5.63;;;;;;;29.25;43.34;99016.44;4958002;29;20050;-87
2023/08/01 13:45:40;;;;;;;14.68;5.28;;;;;;;29.28;41.43;98993.03;4956139;29;20082;-89
2023/08/01 13:48:07;;;;;;;13.73;5.63;;;;;;;29.27;41.97;98991.44;4953780;29;20042;-89
2023/08/01 13:50:33;;;;;;;14.35;5.32;;;;;;;29.31;41.51;98996.97;4937753;29;20058;-86
2023/08/01 13:52:59;;;;;;;18.58;5.82;;;;;;;29.15;42.65;98989.41;4955149;29;20126;-86
2023/08/01 13:55:25;;;;;;;22.42;5.55;;;;;;;29.12;42.35;98979.03;4939649;29;20134;-86
2023/08/01 13:57:51;;;;;;;32.95;6.60;;;;;;;29.33;43.13;98991.66;4954710;29;20382;-87
2023/08/01 14:00:19;;;;;;;16.98;5.18;;;;;;;29.38;41.68;99000.34;4937597;29;20050;-88
2023/08/01 14:02:50;;;;;;;19.77;5.45;;;;;;;29.25;42.05;98974.22;4954994;29;20071;-87
2023/08/01 14:05:16;;;;;;;9.90;5.10;;;;;;;29.36;42.19;98990.78;4922314;29;20050;-88
2023/08/01 14:07:44;;;;;;;20.33;5.70;;;;;;;29.42;43.03;98994.63;4937071;29;20106;-88
2023/08/01 14:10:14;;;;;;;12.00;5.07;;;;;;;29.41;42.63;98995.84;4906958;29;20066;-88
2023/08/01 14:12:41;;;;;;;10.73;5.38;;;;;;;29.35;43.16;99004.06;4938082;29;20046;-88
2023/08/01 14:15:08;;;;;;;20.45;5.63;;;;;;;29.23;42.44;99005.59;4939414;29;20125;-86
2023/08/01 14:17:34;;;;;;;16.45;4.85;;;;;;;29.22;42.16;98984.34;4955297;29;20455;-86
2023/08/01 14:20:00;;;;;;;15.98;4.90;;;;;;;29.32;43.25;99001.38;4953951;29;20066;-86
2023/08/01 14:22:26;;;;;;;11.32;5.20;;;;;;;29.40;42.23;98997.06;4951486;29;20504;-88
2023/08/01 14:24:52;;;;;;;19.60;5.80;;;;;;;29.41;43.10;98993.03;4951729;29;20062;-87
2023/08/01 14:27:18;;;;;;;12.45;6.60;;;;;;;29.39;42.34;99001.94;4955383;28;20043;-87
2023/08/01 14:29:46;;;;;;;;;;;;;;;29.37;41.38;98997.97;4955222;29;20398;-86
2023/08/01 14:32:12;;;;;;;15.88;5.97;;;;;;;29.34;42.26;98987.59;4953342;29;19988;-86
2023/08/01 14:34:38;;;;;;;10.05;5.45;;;;;;;29.36;41.79;98983.09;4959458;29;20043;-91
2023/08/01 14:37:04;;;;;;;;;;;;;;;29.45;42.74;99002.16;4927132;29;20047;-90
2023/08/01 14:39:30;;;;;;;15.27;5.93;;;;;;;29.22;41.57;98977.91;4937382;29;19922;-89
2023/08/01 14:41:56;;;;;;;11.60;5.70;;;;;;;29.31;41.60;98980.09;4953699;29;20046;-91
2023/08/01 14:44:23;;;;;;;18.00;5.35;;;;;;;29.37;41.75;98993.16;4955012;29;20485;-86
2023/08/01 14:46:50;;;;;;;12.40;5.03;;;;;;;29.46;41.18;98998.09;4957706;28;20540;-87
2023/08/01 14:49:16;;;;;;;13.80;5.22;;;;;;;29.49;41.65;99005.66;4945524;29;20111;-88
2023/08/01 14:51:43;;;;;;;10.82;5.43;;;;;;;29.40;41.64;98983.00;4945586;29;20043;-91
2023/08/01 14:54:24;;;;;;;13.98;5.07;;;;;;;29.41;42.59;98990.22;4926889;29;20063;-93
2023/08/01 14:56:54;;;;;;;10.68;4.65;;;;;;;29.18;42.94;98980.84;4954161;29;20135;-91
2023/08/01 14:59:20;;;;;;;22.20;5.18;;;;;;;29.00;43.27;98986.97;4939744;29;20114;-91
2023/08/01 15:01:47;;;;;;;27.30;4.88;;;;;;;29.02;43.19;98989.38;4939760;29;20083;-90
2023/08/01 15:04:13;;;;;;;23.02;5.20;;;;;;;28.82;43.94;98969.03;4903079;29;20050;-92
2023/08/01 15:06:39;;;;;;;21.25;5.40;;;;;;;29.04;43.26;98989.72;4955601;28;20571;-92
2023/08/01 15:09:05;;;;;;;10.52;5.40;;;;;;;28.82;43.98;98954.97;4944888;29;20039;-92
2023/08/01 15:11:32;;;;;;;12.75;5.13;;;;;;;28.92;43.83;98987.63;4946732;29;20138;-91
2023/08/01 15:13:58;;;;;;;40.10;5.60;;;;;;;28.73;44.62;98956.38;4930004;29;20055;-89
2023/08/01 15:16:26;;;;;;;11.65;4.82;;;;;;;28.92;45.93;98982.00;4939244;29;20046;-90
2023/08/01 15:18:52;;;;;;;13.90;5.20;;;;;;;28.78;45.05;98981.16;4957735;29;20047;-90
2023/08/01 15:21:19;;;;;;;49.28;7.10;;;;;;;28.71;45.46;98995.44;4961224;29;20110;-89
2023/08/01 15:23:48;;;;;;;7.05;4.50;;;;;;;28.88;45.31;99009.44;4947870;29;20158;-90
2023/08/01 15:26:16;;;;;;;25.70;5.20;;;;;;;28.74;45.95;98991.72;4956396;29;20633;-89
2023/08/01 15:28:42;;;;;;;16.42;4.88;;;;;;;28.64;46.40;98981.53;4952396;29;20051;-90
2023/08/01 15:31:09;;;;;;;22.13;5.60;;;;;;;28.62;45.42;98992.47;4939765;29;20678;-90
2023/08/01 15:33:36;;;;;;;21.90;5.78;;;;;;;28.52;46.57;98985.09;4956704;29;20047;-89
2023/08/01 15:36:07;;;;;;;40.45;6.47;;;;;;;28.64;46.72;99006.84;4955210;29;20044;-89
2023/08/01 15:38:35;;;;;;;5.97;4.65;;;;;;;28.40;44.71;99006.28;4955075;29;20042;-89
2023/08/01 15:41:08;;;;;;;11.18;4.60;;;;;;;28.30;45.14;99008.13;4896871;29;20060;-91
2023/08/01 15:43:39;;;;;;;9.73;4.68;;;;;;;28.25;45.12;98991.81;4899462;29;20847;-88
2023/08/01 15:46:09;;;;;;;8.40;4.70;;;;;;;28.24;45.51;99021.13;4900468;29;20051;-91
2023/08/01 15:48:36;;;;;;;15.68;5.03;;;;;;;28.12;45.28;99004.22;4901286;29;20059;-90
2023/08/01 15:51:04;;;;;;;12.50;4.97;;;;;;;28.06;46.06;99013.16;4897549;29;20863;-88
2023/08/01 15:53:32;;;;;;;12.27;4.30;;;;;;;27.82;45.51;98997.72;4906357;29;20081;-90
2023/08/01 15:56:01;;;;;;;21.90;5.30;;;;;;;27.75;45.17;99011.84;4882727;29;20073;-90
2023/08/01 15:58:29;;;;;;;10.27;5.78;;;;;;;27.56;46.93;99002.28;4899010;29;20104;-90
2023/08/01 16:00:58;;;;;;;26.52;5.20;;;;;;;27.47;47.18;99002.09;4903111;29;20048;-92
2023/08/01 16:03:25;;;;;;;18.67;5.18;;;;;;;27.30;46.83;99020.91;4919447;29;20629;-91
2023/08/01 16:06:02;;;;;;;18.88;4.82;;;;;;;27.17;46.85;99015.16;4909797;29;20115;-89
2023/08/01 16:08:32;;;;;;;25.40;4.93;;;;;;;27.21;47.69;99032.69;4878537;29;20063;-90
2023/08/01 16:11:00;;;;;;;18.95;5.35;;;;;;;26.98;47.42;99008.28;4907212;29;20430;-90
2023/08/01 16:13:26;;;;;;;19.40;5.30;;;;;;;26.97;47.44;99023.56;4900864;29;20055;-91
2023/08/01 16:15:52;;;;;;;18.23;5.03;;;;;;;26.79;47.84;99009.88;4884345;29;20044;-91
2023/08/01 16:18:18;;;;;;;40.33;6.05;;;;;;;26.76;48.94;99024.78;4912993;29;20512;-91
2023/08/01 16:20:46;;;;;;;26.38;6.25;;;;;;;26.58;49.03;99018.69;4962435;29;20043;-89
2023/08/01 16:23:13;;;;;;;36.55;5.93;;;;;;;26.46;50.33;99012.47;4966520;29;20050;-89
2023/08/01 16:25:39;;;;;;;15.73;7.65;;;;;;;26.42;50.95;99034.19;4947708;29;20508;-90
2023/08/01 16:28:08;;;;;;;19.05;12.13;;;;;;;26.33;51.39;99036.72;4959097;29;20047;-90
2023/08/01 16:30:34;;;;;;;17.33;9.75;;;;;;;26.05;52.98;99014.78;4958312;29;20043;-91
2023/08/01 16:33:02;;;;;;;16.08;8.30;;;;;;;26.02;53.52;99034.00;4961789;29;20043;-90
2023/08/01 16:35:33;;;;;;;21.95;7.68;;;;;;;25.88;53.59;99031.44;4943109;29;20098;-89
2023/08/01 16:37:59;;;;;;;17.58;9.02;;;;;;;25.80;54.25;99035.56;4974390;28;20047;-90
2023/08/01 16:40:25;;;;;;;29.10;9.27;;;;;;;25.74;54.69;99042.84;4964255;29;20048;-91
2023/08/01 16:42:54;;;;;;;14.38;9.40;;;;;;;25.57;55.27;99021.50;4935219;29;20119;-92
2023/08/01 16:45:21;;;;;;;66.32;9.73;;;;;;;25.44;55.25;99032.47;4962144;29;20412;-91
2023/08/01 16:47:47;;;;;;;36.90;10.18;;;;;;;25.40;55.45;99035.31;4949077;29;20460;-93
2023/08/01 16:50:17;;;;;;;20.65;8.20;;;;;;;25.35;55.79;99040.56;4952624;29;20039;-93
2023/08/01 16:52:49;;;;;;;38.65;8.02;;;;;;;25.14;55.94;99022.84;4951359;29;20051;-94
2023/08/01 16:55:17;;;;;;;69.75;7.72;;;;;;;25.15;56.93;99038.41;4948441;29;20131;-92
2023/08/01 16:57:45;;;;;;;18.83;6.50;;;;;;;25.02;57.33;99026.16;4952276;29;20546;-93
2023/08/01 17:00:12;;;;;;;24.48;7.63;;;;;;;24.90;57.58;99024.72;4946682;29;20039;-92
2023/08/01 17:02:40;;;;;;;32.47;7.43;;;;;;;24.94;58.02;99045.03;4964530;29;20177;-93
2023/08/01 17:05:06;;;;;;;20.75;6.90;;;;;;;24.84;58.47;99043.94;4980984;28;20036;-91
2023/08/01 17:07:33;;;;;;;22.15;7.07;;;;;;;24.71;58.82;99039.28;4965574;28;20079;-92
2023/08/01 17:10:04;;;;;;;16.75;7.13;;;;;;;24.71;58.86;99042.88;4953717;28;20043;-91
2023/08/01 17:12:31;;;;;;;30.95;7.28;;;;;;;24.54;59.88;99041.84;4965335;29;20031;-90
2023/08/01 17:14:59;;;;;;;34.63;7.68;;;;;;;24.49;60.09;99047.88;4950039;29;20043;-93
2023/08/01 17:17:25;;;;;;;17.58;9.50;;;;;;;24.43;60.10;99059.91;4932733;29;20091;-90
2023/08/01 17:19:54;;;;;;;46.17;18.73;;;;;;;24.19;60.24;99037.34;4930538;29;20067;-88
2023/08/01 17:22:20;;;;;;;32.05;15.43;;;;;;;24.19;60.64;99050.53;4941225;29;20044;-90
2023/08/01 17:24:48;;;;;;;23.95;10.15;;;;;;;24.13;61.22;99062.13;4944754;29;20079;-90
2023/08/01 17:27:15;;;;;;;26.15;8.40;;;;;;;24.11;62.01;99074.94;4960561;29;20043;-92
2023/08/01 17:29:42;;;;;;;16.25;6.82;;;;;;;23.89;61.67;99060.31;4947336;29;20141;-95
2023/08/01 17:32:10;;;;;;;15.73;7.07;;;;;;;23.94;62.42;99087.81;4967308;29;20039;-93
2023/08/01 17:34:38;;;;;;;15.48;7.32;;;;;;;23.77;63.06;99080.31;4949245;29;20047;-91
2023/08/01 17:37:06;;;;;;;18.58;7.82;;;;;;;23.71;63.52;99073.56;4965363;29;20568;-95
2023/08/01 17:39:33;;;;;;;26.85;9.70;;;;;;;23.56;63.25;99070.03;4947586;29;20194;-94
2023/08/01 17:42:02;;;;;;;25.95;13.85;;;;;;;23.50;63.98;99078.03;4943620;29;20070;-93
2023/08/01 17:44:29;;;;;;;25.70;13.18;;;;;;;23.46;64.35;99088.44;4948880;29;20054;-93
2023/08/01 17:46:55;;;;;;;22.00;12.23;;;;;;;23.30;65.16;99082.50;4962179;29;20043;-92
2023/08/01 17:49:21;;;;;;;16.15;10.80;;;;;;;23.24;65.71;99087.69;4932867;29;20043;-91
2023/08/01 17:51:47;;;;;;;20.77;10.00;;;;;;;23.25;65.71;99097.69;4963341;29;20043;-92
2023/08/01 17:54:13;;;;;;;38.63;11.00;;;;;;;23.05;65.67;99077.84;4944975;29;20057;-91
2023/08/01 17:56:41;;;;;;;38.28;11.00;;;;;;;23.11;65.58;99103.28;4963579;29;20039;-91
2023/08/01 17:59:07;;;;;;;52.05;10.60;;;;;;;22.97;66.17;99090.19;4946010;29;20043;-92
2023/08/01 18:01:34;;;;;;;38.10;9.32;;;;;;;22.83;66.28;99079.84;4929094;29;20047;-92
2023/08/01 18:04:00;;;;;;;28.77;8.30;;;;;;;22.77;66.55;99078.66;4928847;29;20063;-91
2023/08/01 18:06:26;;;;;;;16.88;8.48;;;;;;;22.87;66.74;99099.34;4963148;28;20047;-94
2023/08/01 18:08:53;;;;;;;17.02;7.93;;;;;;;22.71;67.13;99089.44;4967631;29;20047;-93
2023/08/01 18:11:19;;;;;;;12.07;7.93;;;;;;;22.57;67.91;99074.69;4950323;29;20054;-95
2023/08/01 18:13:49;;;;;;;17.05;8.88;;;;;;;22.56;67.27;99082.28;4928257;29;20059;-92
2023/08/01 18:16:21;;;;;;;17.83;8.30;;;;;;;22.52;67.13;99084.28;4945141;29;20151;-91
2023/08/01 18:18:50;;;;;;;17.88;8.88;;;;;;;22.52;67.04;99096.19;4929896;29;20054;-92
2023/08/01 18:21:22;;;;;;;25.05;9.70;;;;;;;22.49;67.62;99099.78;4949119;28;20043;-93
2023/08/01 18:23:49;;;;;;;15.43;8.90;;;;;;;22.37;67.90;99088.25;4946752;29;20032;-93
2023/08/01 18:26:23;;;;;;;15.40;8.95;;;;;;;22.47;68.31;99104.16;4948610;29;20047;-93
2023/08/01 18:28:53;;;;;;;22.42;9.20;;;;;;;22.45;68.55;99109.31;4931730;29;20045;-94
2023/08/01 18:31:24;;;;;;;15.75;8.93;;;;;;;22.21;68.98;99071.94;4936568;29;20142;-95
2023/08/01 18:33:51;;;;;;;21.55;9.85;;;;;;;21.86;68.92;99022.59;4939881;29;20079;-95
2023/08/01 18:36:20;;;;;;;17.70;8.80;;;;;;;21.83;68.79;99034.50;4937118;29;20032;-94
2023/08/01 18:38:48;;;;;;;20.42;8.52;;;;;;;22.05;69.90;99073.09;4936288;29;20114;-95
2023/08/01 18:41:19;;;;;;;24.67;9.25;;;;;;;21.69;70.22;99024.94;4981300;28;20051;-95
2023/08/01 18:43:46;;;;;;;14.95;8.80;;;;;;;21.89;70.65;99058.75;4930780;29;20043;-94
2023/08/01 18:46:18;;;;;;;19.73;8.70;;;;;;;22.05;70.64;99091.75;4930039;29;20050;-92
2023/08/01 18:48:49;;;;;;;18.38;8.18;;;;;;;21.89;69.83;99077.44;4936797;29;20070;-92
2023/08/01 18:51:23;;;;;;;13.25;8.38;;;;;;;21.81;70.62;99071.06;4962891;29;20055;-92
2023/08/01 18:53:59;;;;;;;24.25;9.18;;;;;;;21.65;71.15;99043.59;4936754;29;20035;-95
2023/08/01 18:56:27;;;;;;;37.40;9.65;;;;;;;21.96;71.23;99094.16;4948240;29;20093;-92
2023/08/01 18:58:53;;;;;;;24.65;9.77;;;;;;;21.91;71.42;99091.75;4951170;29;20047;-93
2023/08/01 19:01:23;;;;;;;19.30;9.32;;;;;;;21.65;71.27;99056.72;4965990;29;20047;-93
2023/08/01 19:04:13;;;;;;;18.02;9.20;;;;;;;21.71;71.65;99078.19;4964781;29;20047;-93
2023/08/01 19:06:39;;;;;;;20.67;10.02;;;;;;;21.79;71.47;99099.28;4928829;29;20058;-92
2023/08/01 19:09:07;;;;;;;18.60;10.68;;;;;;;21.63;72.10;99079.38;4929996;29;20051;-91
2023/08/01 19:11:34;;;;;;;19.63;10.43;;;;;;;21.55;71.90;99061.06;4944777;29;20043;-93
2023/08/01 19:14:04;;;;;;;25.27;11.13;;;;;;;21.54;72.25;99071.38;4928370;29;20205;-92
2023/08/01 19:16:32;;;;;;;83.80;49.35;;;;;;;21.46;72.41;99058.66;4927930;29;20090;-92
2023/08/01 19:18:58;;;;;;;188.93;110.47;;;;;;;21.49;72.81;99074.56;4944995;29;20047;-93
2023/08/01 19:21:24;;;;;;;151.15;91.68;;;;;;;21.49;73.20;99082.09;4962089;29;20047;-92
2023/08/01 19:23:52;;;;;;;90.65;52.78;;;;;;;21.63;73.53;99109.19;4943867;29;20469;-91
2023/08/01 19:26:18;;;;;;;77.65;45.42;;;;;;;21.43;73.67;99072.56;4932386;29;20042;-93
2023/08/01 19:28:51;;;;;;;69.53;40.88;;;;;;;21.57;73.86;99101.19;4949886;29;20039;-92
2023/08/01 19:31:22;;;;;;;49.63;28.05;;;;;;;21.63;73.63;99101.63;4954214;29;20188;-92
2023/08/01 19:33:49;;;;;;;39.92;21.00;;;;;;;21.37;73.63;99074.13;4918824;29;20062;-94
2023/08/01 19:36:16;;;;;;;33.00;18.20;;;;;;;21.30;73.66;99064.53;4929581;29;20047;-93